Time;durP1;ratioP1;P1;durP2;ratioP2;P2;SDS_P1;SDS_P2;PMS_P1;PMS_P2;Temp;Humidity;BMP_temperature;BMP_pressure;BME280_temperature;BME280_humidity;BME280_pressure;Samples;Min_cycle;Max_cycle;Signal;HPM_P1;HPM_P2
2021/07/28 00:00:05;;;;;;;19.38;13.68;;;;;;;25.28;64.37;100654.63;5068481;28;20106;-75
2021/07/28 00:02:31;;;;;;;23.23;14.30;;;;;;;25.30;63.88;100660.78;5063174;28;20039;-75
2021/07/28 00:04:56;;;;;;;23.08;14.05;;;;;;;25.40;62.80;100655.75;5070103;28;20028;-75
2021/07/28 00:07:22;;;;;;;21.33;15.75;;;;;;;25.30;64.29;100646.50;5068908;28;20028;-73
2021/07/28 00:09:47;;;;;;;30.40;13.75;;;;;;;25.24;64.88;100642.34;5067307;28;20036;-74
2021/07/28 00:12:13;;;;;;;20.65;14.57;;;;;;;25.21;65.05;100646.06;5067367;28;20021;-74
2021/07/28 00:14:38;;;;;;;30.90;15.70;;;;;;;25.20;65.31;100647.03;5070052;28;20024;-73
2021/07/28 00:17:07;;;;;;;36.80;16.15;;;;;;;25.22;64.77;100645.13;5068222;28;20364;-74
2021/07/28 00:19:46;;;;;;;25.00;13.77;;;;;;;25.27;64.51;100639.47;5067528;28;20036;-75
2021/07/28 00:24:56;;;;;;;26.83;15.60;;;;;;;25.05;65.10;100646.06;5068250;28;20057;-74
2021/07/28 00:27:22;;;;;;;25.95;13.98;;;;;;;25.05;65.64;100651.41;5069398;28;20016;-74
2021/07/28 00:29:47;;;;;;;17.85;14.25;;;;;;;24.99;65.27;100643.69;5069977;28;20094;-75
2021/07/28 00:32:13;;;;;;;22.52;15.00;;;;;;;24.94;65.89;100645.78;5068205;28;20740;-75
2021/07/28 00:34:41;;;;;;;34.75;13.55;;;;;;;24.89;65.99;100650.56;5065523;28;20371;-75
2021/07/28 00:37:06;;;;;;;34.50;15.68;;;;;;;24.84;65.68;100647.22;5069160;28;20131;-76
2021/07/28 00:39:32;;;;;;;19.25;13.70;;;;;;;25.00;64.52;100647.25;5066611;28;20033;-75
2021/07/28 00:41:58;;;;;;;28.30;15.63;;;;;;;25.03;65.18;100652.47;5067681;28;20029;-76
2021/07/28 00:44:23;;;;;;;19.30;14.35;;;;;;;25.10;65.90;100655.63;5057227;28;20048;-74
2021/07/28 00:46:49;;;;;;;31.00;15.40;;;;;;;25.08;66.47;100655.75;5047606;28;20361;-73
2021/07/28 00:49:14;;;;;;;18.80;14.80;;;;;;;25.08;66.86;100649.50;5047998;28;20036;-73
2021/07/28 00:51:40;;;;;;;20.95;15.63;;;;;;;25.04;67.51;100646.13;5030025;28;20028;-74
2021/07/28 00:54:06;;;;;;;35.35;16.27;;;;;;;25.01;67.50;100649.84;5047863;28;20021;-75
2021/07/28 00:56:31;;;;;;;25.15;16.90;;;;;;;25.04;67.53;100652.34;5032403;28;20471;-74
2021/07/28 00:58:58;;;;;;;30.48;15.55;;;;;;;25.04;67.44;100646.13;5049280;28;20033;-74
2021/07/28 01:01:24;;;;;;;27.42;17.20;;;;;;;25.06;67.41;100650.44;5049396;28;20029;-74
2021/07/28 01:03:49;;;;;;;21.15;13.48;;;;;;;25.02;67.08;100656.09;5047128;28;20032;-75
2021/07/28 01:06:15;;;;;;;23.98;15.73;;;;;;;24.86;67.40;100645.31;5030891;28;20044;-75
2021/07/28 01:08:40;;;;;;;18.73;14.05;;;;;;;24.73;68.07;100655.03;5028730;28;20029;-74
2021/07/28 01:11:06;;;;;;;29.20;18.42;;;;;;;24.65;68.69;100660.81;5046492;28;20021;-75
2021/07/28 01:13:35;;;;;;;24.20;16.30;;;;;;;24.56;68.84;100653.25;5047183;28;20021;-75
2021/07/28 01:16:09;;;;;;;23.73;15.20;;;;;;;24.69;68.79;100656.16;5042509;28;20032;-74
2021/07/28 01:18:35;;;;;;;24.92;16.35;;;;;;;24.67;69.38;100650.84;5029971;28;20648;-75
2021/07/28 01:21:02;;;;;;;32.30;16.48;;;;;;;24.64;69.62;100651.03;5046182;28;20037;-75
2021/07/28 01:23:30;;;;;;;26.83;15.38;;;;;;;24.80;68.96;100641.19;5047980;28;20455;-75
2021/07/28 01:25:59;;;;;;;30.88;15.00;;;;;;;24.58;69.38;100633.47;5050635;28;20091;-75
2021/07/28 01:28:26;;;;;;;26.20;16.10;;;;;;;24.47;70.01;100638.53;5045096;28;20025;-74
2021/07/28 01:31:06;;;;;;;18.38;15.57;;;;;;;24.40;70.04;100637.97;5047603;28;20029;-74
2021/07/28 01:33:33;;;;;;;20.95;16.15;;;;;;;24.37;70.60;100632.78;5044659;28;20032;-74
2021/07/28 01:36:00;;;;;;;22.58;15.88;;;;;;;24.41;70.28;100631.66;5045719;28;20398;-73
2021/07/28 01:38:27;;;;;;;30.67;15.73;;;;;;;24.40;70.79;100634.44;5045644;28;20104;-73
2021/07/28 01:40:58;;;;;;;36.58;18.08;;;;;;;24.41;70.67;100634.31;5046565;28;20095;-74
2021/07/28 01:43:26;;;;;;;23.77;18.70;;;;;;;24.54;70.16;100633.72;5048492;28;21082;-73
2021/07/28 01:45:52;;;;;;;20.17;16.67;;;;;;;24.61;70.07;100624.38;5067048;28;20420;-73
2021/07/28 01:48:18;;;;;;;23.80;17.23;;;;;;;24.49;70.55;100625.91;5067162;28;20036;-73
2021/07/28 01:50:47;;;;;;;23.90;16.40;;;;;;;24.40;70.85;100626.38;5048364;28;20020;-73
2021/07/28 01:53:14;;;;;;;29.33;16.92;;;;;;;24.30;71.46;100623.31;5066625;28;20384;-73
2021/07/28 01:55:40;;;;;;;20.27;15.50;;;;;;;24.21;72.10;100632.72;5064912;28;20024;-73
2021/07/28 01:58:06;;;;;;;27.92;19.45;;;;;;;24.27;71.73;100628.84;5067837;28;20032;-74
2021/07/28 02:00:32;;;;;;;30.90;17.73;;;;;;;24.13;72.39;100629.56;5067308;28;20055;-73
2021/07/28 02:03:04;;;;;;;26.42;18.38;;;;;;;24.13;72.42;100634.09;5067431;28;20060;-75
2021/07/28 02:05:30;;;;;;;23.85;17.73;;;;;;;24.10;72.19;100632.44;5063718;28;20024;-74
2021/07/28 02:08:01;;;;;;;26.88;18.05;;;;;;;24.11;72.48;100625.25;5068483;28;20035;-74
2021/07/28 02:10:28;;;;;;;19.75;17.35;;;;;;;24.03;72.86;100620.28;5062998;28;20046;-74
2021/07/28 02:12:53;;;;;;;21.85;18.10;;;;;;;24.05;72.85;100628.28;5061561;28;20056;-74
2021/07/28 02:15:19;;;;;;;22.38;16.67;;;;;;;24.02;73.03;100621.22;5066164;28;20275;-73
2021/07/28 02:17:44;;;;;;;26.50;16.17;;;;;;;24.01;73.23;100620.38;5066978;28;20020;-75
2021/07/28 02:20:10;;;;;;;35.13;17.90;;;;;;;24.06;73.01;100633.53;5066771;28;20376;-73
2021/07/28 02:22:36;;;;;;;24.92;17.77;;;;;;;24.02;72.74;100623.91;5067076;28;20077;-74
2021/07/28 02:25:01;;;;;;;21.63;17.17;;;;;;;23.97;73.19;100624.16;5066687;28;20475;-73
2021/07/28 02:27:27;;;;;;;27.25;16.13;;;;;;;23.97;73.32;100631.34;5066409;28;20021;-75
2021/07/28 02:29:52;;;;;;;21.40;16.25;;;;;;;23.94;73.61;100628.81;5066219;28;20393;-73
2021/07/28 02:32:18;;;;;;;26.45;17.83;;;;;;;23.99;73.11;100626.75;5066299;28;20028;-73
2021/07/28 02:34:43;;;;;;;27.40;15.63;;;;;;;23.99;73.38;100629.44;5067046;28;20397;-74
2021/07/28 02:37:08;;;;;;;27.48;18.15;;;;;;;24.01;73.35;100641.81;5066086;28;20040;-73
2021/07/28 02:39:34;;;;;;;23.30;16.73;;;;;;;24.04;73.54;100629.19;5064751;28;20050;-73
2021/07/28 02:42:00;;;;;;;29.80;18.25;;;;;;;23.99;73.75;100632.13;5064566;28;20418;-73
2021/07/28 02:44:25;;;;;;;23.58;17.23;;;;;;;23.92;73.79;100628.03;5065032;28;20102;-74
2021/07/28 02:46:51;;;;;;;27.65;16.50;;;;;;;23.93;73.90;100629.78;5048267;28;20029;-74
2021/07/28 02:49:16;;;;;;;37.80;17.23;;;;;;;23.88;74.15;100631.81;5067989;28;20020;-73
2021/07/28 02:51:42;;;;;;;42.95;19.13;;;;;;;23.90;74.18;100629.91;5070592;28;20032;-75
2021/07/28 02:54:08;;;;;;;25.25;17.75;;;;;;;23.94;74.02;100628.81;5068780;28;20036;-75
2021/07/28 02:56:34;;;;;;;25.80;17.75;;;;;;;23.88;73.99;100631.81;5073178;28;20494;-74
2021/07/28 02:59:00;;;;;;;21.25;16.42;;;;;;;23.87;74.05;100635.44;5072441;28;20029;-74
2021/07/28 03:01:25;;;;;;;26.00;18.40;;;;;;;23.84;74.69;100625.75;5068836;28;20030;-74
2021/07/28 03:03:50;;;;;;;35.35;18.70;;;;;;;23.80;74.59;100629.53;5071062;28;20048;-75
2021/07/28 03:06:16;;;;;;;39.58;17.70;;;;;;;23.72;74.80;100624.53;5071116;28;20024;-76
2021/07/28 03:08:41;;;;;;;24.25;17.40;;;;;;;23.64;74.85;100625.88;5046521;28;20024;-74
2021/07/28 03:11:07;;;;;;;19.98;16.60;;;;;;;23.66;74.83;100622.16;5069632;28;20025;-74
2021/07/28 03:13:32;;;;;;;28.00;16.77;;;;;;;23.68;74.61;100624.78;5069967;28;20074;-74
2021/07/28 03:16:08;;;;;;;23.88;16.27;;;;;;;23.68;74.69;100631.00;5068602;28;20032;-74
2021/07/28 03:18:33;;;;;;;29.88;17.45;;;;;;;23.78;74.50;100626.06;5069675;28;20379;-73
2021/07/28 03:20:59;;;;;;;29.95;17.95;;;;;;;23.78;74.85;100618.03;5070732;28;20021;-74
2021/07/28 03:23:24;;;;;;;24.13;16.58;;;;;;;23.81;74.58;100620.53;5053385;28;20043;-74
2021/07/28 03:25:50;;;;;;;27.27;16.55;;;;;;;23.85;74.25;100618.56;5071408;28;20028;-74
2021/07/28 03:28:15;;;;;;;27.70;18.52;;;;;;;23.88;74.32;100629.13;5070963;28;20017;-75
2021/07/28 03:30:41;;;;;;;21.60;15.68;;;;;;;23.89;74.42;100626.38;5045586;28;20013;-74
2021/07/28 03:33:06;;;;;;;22.33;17.05;;;;;;;23.96;73.88;100625.09;5065836;28;20066;-74
2021/07/28 03:35:31;;;;;;;31.10;17.17;;;;;;;23.94;73.89;100621.63;5052357;28;20036;-74
2021/07/28 03:37:57;;;;;;;30.48;17.55;;;;;;;24.04;74.04;100624.69;5073868;28;20592;-74
2021/07/28 03:40:23;;;;;;;21.92;17.60;;;;;;;24.08;73.97;100617.38;5069825;28;20028;-73
2021/07/28 03:42:48;;;;;;;25.02;16.92;;;;;;;24.15;73.78;100630.38;5069601;28;20441;-74
2021/07/28 03:45:14;;;;;;;23.42;18.45;;;;;;;24.16;73.17;100624.06;5067382;28;20036;-74
2021/07/28 03:47:39;;;;;;;27.30;18.30;;;;;;;24.25;72.85;100624.50;5069737;28;20045;-77
2021/07/28 03:50:05;;;;;;;29.88;15.75;;;;;;;24.33;72.76;100631.22;5068653;28;20048;-74
2021/07/28 03:52:31;;;;;;;22.17;17.75;;;;;;;24.43;72.14;100637.78;5069121;28;20463;-72
2021/07/28 03:54:56;;;;;;;26.23;17.40;;;;;;;24.46;72.01;100639.44;5069570;28;20036;-74
2021/07/28 03:57:22;;;;;;;22.75;15.10;;;;;;;24.46;71.67;100634.06;5070210;28;20751;-74
2021/07/28 03:59:47;;;;;;;24.63;17.00;;;;;;;24.54;71.90;100639.94;5072073;28;20503;-76
2021/07/28 04:02:13;;;;;;;22.42;18.67;;;;;;;24.59;71.94;100635.19;5063622;28;20043;-76
2021/07/28 04:04:39;;;;;;;30.25;20.85;;;;;;;24.56;72.62;100640.72;5068014;28;20025;-76
2021/07/28 04:07:06;;;;;;;36.55;18.38;;;;;;;24.54;73.27;100636.41;5067397;28;20058;-76
2021/07/28 04:09:32;;;;;;;27.48;17.48;;;;;;;24.58;72.83;100638.84;5068823;28;20502;-76
2021/07/28 04:11:57;;;;;;;36.83;20.55;;;;;;;24.61;73.06;100646.69;5053529;28;20056;-76
2021/07/28 04:14:23;;;;;;;21.90;16.73;;;;;;;24.63;71.97;100644.81;5069589;28;20020;-77
2021/07/28 04:16:48;;;;;;;26.92;17.60;;;;;;;24.64;72.03;100646.53;5068952;28;20024;-77
2021/07/28 04:19:14;;;;;;;22.77;17.05;;;;;;;24.59;72.24;100645.91;5068725;28;20024;-76
2021/07/28 04:21:39;;;;;;;25.33;17.60;;;;;;;24.53;71.51;100638.19;5069485;28;20079;-76
2021/07/28 04:24:05;;;;;;;28.60;18.42;;;;;;;24.63;71.97;100642.13;5068969;28;20038;-76
2021/07/28 04:26:30;;;;;;;27.95;16.60;;;;;;;24.74;71.27;100641.50;5072324;28;20047;-76
2021/07/28 04:28:56;;;;;;;28.25;16.73;;;;;;;24.78;70.85;100642.22;5068876;28;20395;-75
2021/07/28 04:31:21;;;;;;;24.98;17.58;;;;;;;24.84;70.42;100639.19;5069366;28;20383;-77
2021/07/28 04:33:47;;;;;;;27.95;16.63;;;;;;;24.93;69.63;100646.72;5065328;28;20028;-77
2021/07/28 04:36:12;;;;;;;31.73;20.27;;;;;;;24.88;70.51;100634.50;5068516;28;20032;-75
2021/07/28 04:38:38;;;;;;;24.15;19.13;;;;;;;25.02;69.77;100639.97;5070965;28;20031;-78
2021/07/28 04:41:03;;;;;;;23.27;18.27;;;;;;;25.20;69.24;100636.28;5061601;28;20042;-78
2021/07/28 04:43:29;;;;;;;30.05;17.88;;;;;;;25.24;68.83;100631.59;5070712;28;20054;-77
2021/07/28 04:46:02;;;;;;;35.47;21.67;;;;;;;25.38;68.33;100634.34;5052205;28;20387;-78
2021/07/28 04:48:28;;;;;;;33.42;22.60;;;;;;;25.40;68.48;100642.31;5071251;28;20039;-82
2021/07/28 04:50:55;;;;;;;41.40;20.25;;;;;;;25.61;67.75;100640.19;5073044;28;20024;-82
2021/07/28 04:53:30;;;;;;;37.60;18.70;;;;;;;25.68;67.19;100639.75;5071103;28;20021;-76
2021/07/28 04:55:57;;;;;;;31.38;20.67;;;;;;;25.77;67.19;100641.00;5068824;28;20028;-76
2021/07/28 04:58:23;;;;;;;38.40;18.02;;;;;;;25.92;66.79;100643.75;5068703;28;20063;-73
2021/07/28 05:00:49;;;;;;;28.38;19.38;;;;;;;25.99;66.39;100637.94;5066628;28;20703;-73
2021/07/28 05:03:15;;;;;;;22.73;17.75;;;;;;;26.15;63.36;100640.53;5049085;28;20067;-73
2021/07/28 05:05:41;;;;;;;34.20;16.17;;;;;;;26.26;62.63;100635.34;5050467;28;20040;-73
2021/07/28 05:08:07;;;;;;;27.42;17.13;;;;;;;26.36;63.23;100637.47;5055488;28;20032;-74
2021/07/28 05:10:32;;;;;;;30.40;19.40;;;;;;;26.47;63.83;100633.16;5069526;28;20009;-73
2021/07/28 05:12:58;;;;;;;29.98;18.75;;;;;;;26.56;64.17;100631.75;5067907;28;20066;-73
2021/07/28 05:15:23;;;;;;;32.05;17.27;;;;;;;26.56;64.25;100631.75;5068005;28;20059;-73
2021/07/28 05:17:49;;;;;;;22.17;17.90;;;;;;;26.63;63.96;100627.69;5067277;28;20028;-73
2021/07/28 05:20:16;;;;;;;25.30;17.15;;;;;;;26.79;63.72;100629.41;5067383;28;20033;-73
2021/07/28 05:22:46;;;;;;;23.00;17.05;;;;;;;26.82;63.56;100627.38;5049091;28;20032;-73
2021/07/28 05:25:12;;;;;;;24.67;16.13;;;;;;;26.89;62.65;100631.41;5068595;28;20025;-73
2021/07/28 05:27:38;;;;;;;22.88;16.77;;;;;;;26.91;62.77;100637.56;5068332;28;20490;-73
2021/07/28 05:30:05;;;;;;;56.78;19.63;;;;;;;27.17;61.52;100637.69;5068947;28;20033;-73
2021/07/28 05:32:30;;;;;;;29.45;18.00;;;;;;;27.21;61.67;100635.69;5063097;28;20036;-73
2021/07/28 05:34:56;;;;;;;28.40;17.02;;;;;;;27.39;61.40;100639.84;5067691;28;20115;-74
2021/07/28 05:37:22;;;;;;;29.55;17.20;;;;;;;27.54;60.40;100644.22;5051119;28;20032;-73
2021/07/28 05:39:47;;;;;;;24.52;15.93;;;;;;;27.70;59.54;100645.88;5071792;28;20082;-71
2021/07/28 05:42:13;;;;;;;28.63;15.90;;;;;;;27.68;59.30;100645.13;5064688;28;20513;-72
2021/07/28 05:44:39;;;;;;;24.60;16.60;;;;;;;27.68;59.13;100642.44;5070817;28;20113;-78
2021/07/28 05:47:11;;;;;;;17.85;15.10;;;;;;;27.78;58.57;100641.69;5070269;28;20039;-80
2021/07/28 05:49:36;;;;;;;17.38;14.65;;;;;;;27.89;58.77;100645.53;5073197;28;20402;-78
2021/07/28 05:52:02;;;;;;;29.20;15.20;;;;;;;27.96;57.75;100636.03;5069515;28;20028;-77
2021/07/28 05:54:28;;;;;;;40.67;16.08;;;;;;;28.08;57.55;100640.56;5069457;28;20032;-76
2021/07/28 05:56:53;;;;;;;19.52;15.20;;;;;;;28.12;57.64;100649.28;5074258;28;20392;-76
2021/07/28 05:59:20;;;;;;;43.80;14.57;;;;;;;28.19;57.78;100654.19;5070641;28;20043;-75
2021/07/28 06:01:46;;;;;;;24.70;15.80;;;;;;;28.20;58.04;100646.94;5049166;28;20048;-76
2021/07/28 06:04:11;;;;;;;25.02;15.88;;;;;;;28.32;57.32;100646.06;5068922;28;20725;-76
2021/07/28 06:06:36;;;;;;;34.17;16.98;;;;;;;28.37;56.94;100645.75;5048232;28;20024;-79
2021/07/28 06:09:02;;;;;;;29.50;15.63;;;;;;;28.44;56.83;100648.88;5051860;28;20038;-78
2021/07/28 06:11:28;;;;;;;23.92;14.77;;;;;;;28.45;56.68;100640.69;5068738;28;20024;-79
2021/07/28 06:13:53;;;;;;;40.25;16.73;;;;;;;28.33;56.86;100645.13;5069762;28;20024;-77
2021/07/28 06:16:19;;;;;;;27.65;16.50;;;;;;;28.52;57.02;100649.25;5069862;28;20024;-76
2021/07/28 06:18:44;;;;;;;24.63;17.00;;;;;;;28.53;56.14;100646.41;5072045;28;20032;-75
2021/07/28 06:21:10;;;;;;;28.13;14.32;;;;;;;28.65;55.96;100650.06;5069519;28;20024;-78
2021/07/28 06:23:36;;;;;;;23.23;13.15;;;;;;;28.86;54.58;100646.78;5068291;28;20463;-79
2021/07/28 06:26:01;;;;;;;25.55;12.50;;;;;;;28.95;53.56;100646.97;5066749;28;20062;-77
2021/07/28 06:28:27;;;;;;;24.20;16.17;;;;;;;29.10;53.78;100653.09;5067068;28;20103;-76
2021/07/28 06:30:53;;;;;;;20.45;15.25;;;;;;;29.05;54.26;100652.56;5067720;28;20037;-76
2021/07/28 06:33:20;;;;;;;29.30;14.52;;;;;;;29.16;54.08;100649.97;5063166;28;20029;-77
2021/07/28 06:35:48;;;;;;;17.38;13.68;;;;;;;29.28;53.25;100648.19;5068130;28;20980;-77
2021/07/28 06:38:13;;;;;;;46.45;17.70;;;;;;;29.27;53.68;100653.69;5066969;28;20115;-77
2021/07/28 06:40:39;;;;;;;22.00;16.77;;;;;;;29.27;53.45;100648.28;5067537;28;20040;-77
2021/07/28 06:43:05;;;;;;;21.45;16.02;;;;;;;29.31;53.43;100647.09;5061886;28;20535;-78
2021/07/28 06:45:30;;;;;;;26.25;13.90;;;;;;;29.42;52.40;100647.16;5065128;28;20495;-77
2021/07/28 06:47:55;;;;;;;23.98;13.63;;;;;;;29.53;51.86;100643.66;5065558;28;20032;-76
2021/07/28 06:50:21;;;;;;;44.20;14.93;;;;;;;29.65;51.17;100648.13;5066162;28;20509;-76
2021/07/28 06:52:47;;;;;;;22.75;14.05;;;;;;;29.78;51.02;100648.94;5053324;28;20374;-76
2021/07/28 06:55:13;;;;;;;25.58;18.13;;;;;;;29.81;51.00;100643.28;5065266;28;20024;-77
2021/07/28 06:57:38;;;;;;;22.58;12.65;;;;;;;29.94;50.12;100643.19;5067085;28;20127;-77
2021/07/28 07:00:05;;;;;;;31.65;13.77;;;;;;;30.06;49.72;100644.06;5063869;28;20079;-77
2021/07/28 07:02:31;;;;;;;27.02;12.95;;;;;;;30.21;49.42;100642.03;5068666;28;20024;-77
2021/07/28 07:04:57;;;;;;;18.85;12.75;;;;;;;30.19;50.07;100646.69;5066221;28;20040;-77
2021/07/28 07:07:25;;;;;;;31.65;15.57;;;;;;;30.36;49.69;100650.81;5066425;28;20103;-77
2021/07/28 07:09:55;;;;;;;21.85;12.77;;;;;;;30.36;50.13;100640.81;5068615;28;20040;-77
2021/07/28 07:12:21;;;;;;;22.25;12.95;;;;;;;30.50;49.56;100637.00;5067781;28;20059;-77
2021/07/28 07:14:47;;;;;;;19.20;13.00;;;;;;;30.65;50.13;100640.34;5067718;28;20020;-77
2021/07/28 07:17:13;;;;;;;27.20;15.70;;;;;;;30.71;48.99;100642.53;5066597;28;20388;-76
2021/07/28 07:19:38;;;;;;;21.00;12.80;;;;;;;30.80;48.96;100639.09;5066446;28;20055;-77
2021/07/28 07:22:04;;;;;;;22.33;14.15;;;;;;;30.90;48.11;100645.50;5048565;28;20021;-77
2021/07/28 07:24:29;;;;;;;23.65;15.00;;;;;;;31.01;48.11;100639.22;5067619;28;20025;-77
2021/07/28 07:26:55;;;;;;;21.95;12.48;;;;;;;31.01;46.81;100643.78;5045509;28;20064;-78
2021/07/28 07:29:20;;;;;;;22.33;12.40;;;;;;;31.11;45.85;100645.59;5066742;28;20050;-77
2021/07/28 07:31:46;;;;;;;18.23;12.00;;;;;;;31.30;46.11;100641.34;5045075;28;20028;-76
2021/07/28 07:34:12;;;;;;;32.30;12.45;;;;;;;31.41;45.37;100645.91;5061481;28;20055;-76
2021/07/28 07:36:37;;;;;;;19.70;10.13;;;;;;;31.44;42.86;100645.66;5068753;28;20074;-74
2021/07/28 07:39:03;;;;;;;21.02;11.65;;;;;;;31.54;42.53;100646.63;5069874;28;20123;-78
2021/07/28 07:41:30;;;;;;;19.52;11.38;;;;;;;31.78;43.67;100637.38;5066721;28;20482;-78
2021/07/28 07:43:57;;;;;;;25.98;11.73;;;;;;;31.84;43.22;100639.53;5071251;28;20040;-77
2021/07/28 07:46:23;;;;;;;23.17;11.50;;;;;;;32.29;41.74;100642.03;5071685;28;20025;-77
2021/07/28 07:48:48;;;;;;;23.85;13.23;;;;;;;32.80;41.39;100643.81;5066975;28;20082;-77
2021/07/28 07:51:14;;;;;;;21.77;13.55;;;;;;;33.09;41.18;100640.34;5070452;28;20512;-77
2021/07/28 07:53:40;;;;;;;37.08;22.17;;;;;;;33.40;40.19;100639.22;5067387;28;20112;-78
2021/07/28 08:01:17;;;;;;;24.73;14.82;;;;;;;37.16;34.28;100632.53;5019029;23;20045;-76
2021/07/28 08:03:42;;;;;;;33.03;16.95;;;;;;;37.76;31.85;100634.13;5024622;28;20049;-76
2021/07/28 08:06:09;;;;;;;18.08;10.88;;;;;;;37.76;30.69;100637.72;5017103;28;20024;-76
2021/07/28 08:08:35;;;;;;;23.40;12.02;;;;;;;38.02;30.51;100642.16;5012339;28;20100;-76
2021/07/28 08:11:06;;;;;;;21.58;13.10;;;;;;;38.18;30.08;100633.91;5028378;28;20376;-76
2021/07/28 08:13:31;;;;;;;19.02;11.02;;;;;;;38.67;28.59;100629.34;5020889;28;20053;-75
2021/07/28 08:15:57;;;;;;;24.35;15.90;;;;;;;39.12;28.34;100636.00;5024374;28;20071;-74
2021/07/28 08:18:23;;;;;;;27.70;10.45;;;;;;;39.64;27.59;100627.91;5025008;28;20059;-74
2021/07/28 08:20:49;;;;;;;13.45;8.95;;;;;;;39.29;25.53;100637.59;5016018;28;20022;-74
2021/07/28 08:23:14;;;;;;;18.15;8.18;;;;;;;38.38;27.39;100628.06;5018757;28;20384;-74
2021/07/28 08:25:40;;;;;;;11.90;8.25;;;;;;;39.56;24.90;100625.22;5014624;28;20026;-75
2021/07/28 08:28:06;;;;;;;19.50;9.05;;;;;;;40.01;25.90;100623.44;5023499;28;20037;-75
2021/07/28 08:30:31;;;;;;;17.02;8.63;;;;;;;40.45;25.80;100624.56;5027443;28;20028;-75
2021/07/28 08:32:56;;;;;;;11.40;6.78;;;;;;;40.81;24.15;100621.03;5007387;28;20376;-75
2021/07/28 08:35:22;;;;;;;20.38;8.40;;;;;;;41.61;22.54;100616.41;5021343;28;20738;-75
2021/07/28 08:37:47;;;;;;;12.57;8.90;;;;;;;41.87;22.07;100616.63;5009901;28;20116;-75
2021/07/28 08:40:16;;;;;;;16.48;7.90;;;;;;;42.08;21.62;100617.66;5022088;28;20048;-75
2021/07/28 08:42:48;;;;;;;12.68;8.40;;;;;;;41.88;22.30;100614.72;5022589;28;20594;-75
2021/07/28 08:45:14;;;;;;;18.33;7.97;;;;;;;42.26;21.38;100617.13;5029492;28;20033;-75
2021/07/28 08:47:42;;;;;;;17.77;8.80;;;;;;;42.80;22.52;100616.38;5023511;28;20026;-75
2021/07/28 08:50:10;;;;;;;26.48;8.38;;;;;;;42.61;21.26;100606.09;5021117;28;20044;-74
2021/07/28 08:52:37;;;;;;;13.52;7.30;;;;;;;42.54;20.96;100614.31;5027167;28;20375;-75
2021/07/28 08:55:05;;;;;;;11.23;6.40;;;;;;;42.52;21.22;100616.44;5007903;28;20034;-75
2021/07/28 08:57:32;;;;;;;13.20;8.02;;;;;;;42.62;20.73;100607.81;5023927;28;20021;-75
2021/07/28 08:59:59;;;;;;;19.40;10.70;;;;;;;43.26;22.16;100612.06;5028195;28;20075;-75
2021/07/28 09:02:25;;;;;;;34.63;9.32;;;;;;;42.76;21.61;100606.78;5025277;28;20384;-75
2021/07/28 09:04:51;;;;;;;17.13;7.82;;;;;;;43.10;20.73;100602.22;5028475;28;20029;-75
2021/07/28 09:07:17;;;;;;;16.90;9.13;;;;;;;43.16;22.18;100605.00;5025051;28;20052;-74
2021/07/28 09:09:49;;;;;;;27.55;9.60;;;;;;;43.22;21.79;100608.88;5029592;28;20040;-75
2021/07/28 09:12:16;;;;;;;11.23;7.82;;;;;;;43.07;20.75;100599.91;5026825;28;20014;-75
2021/07/28 09:14:54;;;;;;;15.90;7.03;;;;;;;42.24;21.52;100595.28;5010993;28;20028;-75
2021/07/28 09:17:23;;;;;;;12.93;7.65;;;;;;;42.64;21.14;100592.75;5028101;28;20029;-74
2021/07/28 09:19:49;;;;;;;12.73;6.88;;;;;;;43.31;20.50;100598.47;5024817;28;20036;-75
2021/07/28 09:22:18;;;;;;;13.48;7.60;;;;;;;43.15;20.11;100599.69;5009799;28;20361;-76
2021/07/28 09:24:48;;;;;;;14.98;8.13;;;;;;;43.35;20.52;100583.19;5024276;28;20091;-76
2021/07/28 09:27:52;;;;;;;28.33;8.40;;;;;;;43.74;20.18;100576.81;5021192;28;20041;-75
2021/07/28 09:30:24;;;;;;;18.67;8.35;;;;;;;44.04;19.81;100585.53;5018323;28;20072;-77
2021/07/28 09:32:59;;;;;;;18.23;7.70;;;;;;;44.38;19.61;100574.34;5015548;28;20726;-75
2021/07/28 09:35:46;;;;;;;13.70;7.70;;;;;;;43.11;20.04;100576.31;5026335;28;20036;-77
2021/07/28 09:38:12;;;;;;;15.40;7.45;;;;;;;44.36;19.64;100577.34;5022983;28;20021;-75
2021/07/28 09:40:37;;;;;;;11.90;8.65;;;;;;;45.13;18.54;100577.41;5024223;28;20033;-77
2021/07/28 09:43:04;;;;;;;16.20;9.10;;;;;;;45.74;17.85;100563.97;5023721;28;20021;-77
2021/07/28 09:45:29;;;;;;;14.15;8.75;;;;;;;45.63;18.39;100566.38;5021606;28;20029;-77
2021/07/28 09:47:55;;;;;;;15.30;8.77;;;;;;;46.21;18.66;100564.31;5003829;28;20025;-77
2021/07/28 09:50:20;;;;;;;14.18;7.47;;;;;;;46.01;17.79;100568.19;5008374;28;20026;-77
2021/07/28 09:52:50;;;;;;;15.40;7.78;;;;;;;46.04;18.05;100562.16;5016624;28;20053;-77
2021/07/28 09:55:21;;;;;;;28.85;8.55;;;;;;;46.12;17.49;100559.06;5021111;28;20018;-77
2021/07/28 09:57:49;;;;;;;;;;;;;;;46.15;17.95;100560.53;5022733;28;20083;-75
2021/07/28 10:00:15;;;;;;;14.43;9.77;;;;;;;46.16;17.46;100558.63;5029111;28;20274;-77
2021/07/28 10:02:43;;;;;;;14.82;8.57;;;;;;;46.29;17.77;100564.00;5024800;28;20557;-76
2021/07/28 10:05:09;;;;;;;18.42;8.95;;;;;;;46.06;17.38;100548.06;5024272;28;20047;-76
2021/07/28 10:07:36;;;;;;;20.90;9.93;;;;;;;47.15;16.74;100554.53;5019324;28;20103;-77
2021/07/28 10:10:07;;;;;;;14.52;7.28;;;;;;;46.94;17.04;100555.88;5019624;28;20447;-76
2021/07/28 10:12:36;;;;;;;15.67;9.20;;;;;;;46.33;17.34;100546.63;5021467;28;20773;-76
2021/07/28 10:15:04;;;;;;;11.50;8.60;;;;;;;46.97;17.04;100542.59;5026899;28;20504;-77
2021/07/28 10:17:32;;;;;;;10.15;7.43;;;;;;;47.38;17.04;100544.53;5027611;28;20056;-76
2021/07/28 10:19:59;;;;;;;18.13;8.98;;;;;;;47.12;16.23;100549.44;5009736;28;20444;-76
2021/07/28 10:22:25;;;;;;;14.80;8.40;;;;;;;47.54;16.50;100541.06;5023687;28;20070;-76
2021/07/28 10:24:51;;;;;;;41.95;8.52;;;;;;;46.49;17.42;100538.78;5020598;28;20092;-76
2021/07/28 10:27:17;;;;;;;17.13;8.63;;;;;;;44.99;18.02;100529.56;5025179;28;20028;-70
2021/07/28 10:29:44;;;;;;;17.10;8.68;;;;;;;45.59;17.93;100529.13;5019557;28;20033;-70
2021/07/28 10:32:27;;;;;;;22.00;8.82;;;;;;;46.14;17.68;100533.03;5025092;28;20025;-70
2021/07/28 10:34:53;;;;;;;20.90;8.13;;;;;;;45.47;18.53;100525.34;5025021;28;20029;-70
2021/07/28 10:37:29;;;;;;;12.77;8.25;;;;;;;46.42;17.35;100524.16;5027251;28;20407;-70
2021/07/28 10:39:55;;;;;;;14.45;8.20;;;;;;;46.85;16.97;100523.97;5027360;28;20059;-69
2021/07/28 10:42:29;;;;;;;14.80;8.32;;;;;;;45.96;17.73;100514.41;5017066;28;20042;-69
2021/07/28 10:45:09;;;;;;;11.30;7.90;;;;;;;44.55;19.27;100516.59;5011176;28;20037;-69
2021/07/28 10:47:45;;;;;;;13.02;8.98;;;;;;;44.29;19.24;100523.94;5022547;28;20029;-68
2021/07/28 10:50:22;;;;;;;19.98;8.18;;;;;;;44.22;20.05;100509.28;5005744;28;20033;-69
2021/07/28 10:52:57;;;;;;;12.90;7.78;;;;;;;43.68;19.89;100508.56;5019534;28;20141;-70
2021/07/28 10:55:27;;;;;;;15.60;7.75;;;;;;;42.59;21.33;100502.28;5021890;28;20102;-76
2021/07/28 10:57:53;;;;;;;12.23;8.18;;;;;;;41.76;21.73;100504.16;5022940;28;20037;-76
2021/07/28 11:00:47;;;;;;;23.55;9.48;;;;;;;40.22;24.50;100507.22;5022229;28;20049;-76
2021/07/28 11:03:13;;;;;;;20.02;9.02;;;;;;;40.16;23.82;100507.16;5021082;28;20061;-77
2021/07/28 11:05:44;;;;;;;19.15;8.95;;;;;;;39.94;24.54;100501.56;5025269;28;20037;-76
2021/07/28 11:08:12;;;;;;;16.65;9.38;;;;;;;39.43;25.27;100501.38;5021392;28;20030;-75
2021/07/28 11:10:57;;;;;;;13.57;7.88;;;;;;;39.07;24.47;100493.78;5021494;28;20113;-75
2021/07/28 11:13:30;;;;;;;18.52;11.10;;;;;;;38.62;25.71;100495.47;5005917;28;20049;-75
2021/07/28 11:16:03;;;;;;;16.10;9.52;;;;;;;38.54;25.69;100498.25;5028679;28;20032;-76
2021/07/28 11:18:35;;;;;;;17.58;8.43;;;;;;;38.54;25.67;100498.25;5026374;28;20127;-77